Cape Nelson, Australia
Current Conditions -  °F | °C
As of 1:00 AM on Friday 24 Oct 2014 (Local Time) from YMTG Reporting Station
NA  
Wind Chill: 50°   Ceiling: NA
Heat Index: 50°   Visibility: 0.15mi
Dew Point: 48°   Wind: 0mph
Humidity: 94%   Direction: NA
Pressure: 29.91"   Gusts: NA
Location:  38.38°S, 141.57°E
Report Text: YMTG 231400Z AUTO 00000KT 0250 // ////// 10/09 Q1013
Loading
Personal Weather Stations






























Interactive Weather Map
Tropical Storm Tracking
New forecast layout! Learn more

10-Day Weather Forecast

Advertisements
Track Severe Weather on mobile